sensor_id;sensor_type;location;lat;lon;timestamp;pressure;altitude;pressure_sealevel;temperature;humidity
71772;BME280;59606;52.138;5.424;2023-09-18T00:00:29;100757.81;;;16.65;100.00
71772;BME280;59606;52.138;5.424;2023-09-18T00:02:56;100745.66;;;16.64;100.00
71772;BME280;59606;52.138;5.424;2023-09-18T00:05:23;100750.91;;;16.64;100.00
71772;BME280;59606;52.138;5.424;2023-09-18T00:07:49;100740.50;;;16.62;100.00
71772;BME280;59606;52.138;5.424;2023-09-18T00:10:16;100725.53;;;16.63;100.00
71772;BME280;59606;52.138;5.424;2023-09-18T00:12:43;100723.78;;;16.63;100.00
71772;BME280;59606;52.138;5.424;2023-09-18T00:15:09;100718.63;;;16.62;100.00
71772;BME280;59606;52.138;5.424;2023-09-18T00:17:36;100709.91;;;16.61;100.00
71772;BME280;59606;52.138;5.424;2023-09-18T00:20:03;100692.31;;;16.62;100.00
71772;BME280;59606;52.138;5.424;2023-09-18T00:22:33;100689.81;;;16.60;100.00
71772;BME280;59606;52.138;5.424;2023-09-18T00:25:00;100685.41;;;16.61;100.00
71772;BME280;59606;52.138;5.424;2023-09-18T00:27:27;100689.69;;;16.62;100.00
71772;BME280;59606;52.138;5.424;2023-09-18T00:29:54;100684.31;;;16.63;100.00
71772;BME280;59606;52.138;5.424;2023-09-18T00:32:21;100677.25;;;16.64;100.00
71772;BME280;59606;52.138;5.424;2023-09-18T00:34:48;100674.63;;;16.64;100.00
71772;BME280;59606;52.138;5.424;2023-09-18T00:37:14;100662.41;;;16.63;100.00
71772;BME280;59606;52.138;5.424;2023-09-18T00:39:43;100665.03;;;16.63;100.00
71772;BME280;59606;52.138;5.424;2023-09-18T00:42:10;100660.91;;;16.60;100.00
71772;BME280;59606;52.138;5.424;2023-09-18T00:44:40;100661.84;;;16.59;100.00
71772;BME280;59606;52.138;5.424;2023-09-18T00:47:08;100665.44;;;16.58;100.00
71772;BME280;59606;52.138;5.424;2023-09-18T00:49:36;100655.06;;;16.57;100.00
71772;BME280;59606;52.138;5.424;2023-09-18T00:52:06;100645.63;;;16.54;100.00
71772;BME280;59606;52.138;5.424;2023-09-18T00:54:34;100629.00;;;16.54;100.00
71772;BME280;59606;52.138;5.424;2023-09-18T00:57:02;100630.91;;;16.52;100.00
71772;BME280;59606;52.138;5.424;2023-09-18T00:59:29;100625.66;;;16.52;100.00
71772;BME280;59606;52.138;5.424;2023-09-18T01:01:57;100618.75;;;16.50;100.00
71772;BME280;59606;52.138;5.424;2023-09-18T01:04:25;100611.94;;;16.48;100.00
71772;BME280;59606;52.138;5.424;2023-09-18T01:06:53;100604.88;;;16.48;100.00
71772;BME280;59606;52.138;5.424;2023-09-18T01:09:21;100603.22;;;16.47;100.00
71772;BME280;59606;52.138;5.424;2023-09-18T01:14:20;100584.91;;;16.46;100.00
71772;BME280;59606;52.138;5.424;2023-09-18T01:16:53;100580.53;;;16.46;100.00
71772;BME280;59606;52.138;5.424;2023-09-18T01:19:38;100579.66;;;16.46;100.00
71772;BME280;59606;52.138;5.424;2023-09-18T01:22:09;100569.16;;;16.46;100.00
71772;BME280;59606;52.138;5.424;2023-09-18T01:24:37;100563.06;;;16.45;100.00
71772;BME280;59606;52.138;5.424;2023-09-18T01:27:05;100569.16;;;16.46;100.00
71772;BME280;59606;52.138;5.424;2023-09-18T01:29:32;100559.59;;;16.45;100.00
71772;BME280;59606;52.138;5.424;2023-09-18T01:31:58;100544.66;;;16.45;100.00
71772;BME280;59606;52.138;5.424;2023-09-18T01:34:28;100542.16;;;16.44;100.00
71772;BME280;59606;52.138;5.424;2023-09-18T01:36:58;100533.44;;;16.43;100.00
71772;BME280;59606;52.138;5.424;2023-09-18T01:39:27;100526.25;;;16.45;100.00
71772;BME280;59606;52.138;5.424;2023-09-18T01:42:03;100534.69;;;16.49;100.00
71772;BME280;59606;52.138;5.424;2023-09-18T01:44:36;100526.56;;;16.52;100.00
71772;BME280;59606;52.138;5.424;2023-09-18T01:47:08;100528.81;;;16.57;100.00
71772;BME280;59606;52.138;5.424;2023-09-18T01:49:36;100525.06;;;16.59;100.00
71772;BME280;59606;52.138;5.424;2023-09-18T01:52:03;100521.50;;;16.60;100.00
71772;BME280;59606;52.138;5.424;2023-09-18T01:54:31;100527.59;;;16.61;100.00
71772;BME280;59606;52.138;5.424;2023-09-18T01:56:58;100522.31;;;16.61;100.00
71772;BME280;59606;52.138;5.424;2023-09-18T01:59:25;100523.16;;;16.61;100.00
71772;BME280;59606;52.138;5.424;2023-09-18T02:01:53;100525.06;;;16.59;100.00
71772;BME280;59606;52.138;5.424;2023-09-18T02:04:21;100532.97;;;16.59;100.00
71772;BME280;59606;52.138;5.424;2023-09-18T02:07:08;100522.44;;;16.59;100.00
71772;BME280;59606;52.138;5.424;2023-09-18T02:09:35;100531.31;;;16.58;100.00
71772;BME280;59606;52.138;5.424;2023-09-18T02:12:02;100539.19;;;16.58;100.00
71772;BME280;59606;52.138;5.424;2023-09-18T02:14:29;100528.41;;;16.61;100.00
71772;BME280;59606;52.138;5.424;2023-09-18T02:16:57;100537.97;;;16.62;100.00
71772;BME280;59606;52.138;5.424;2023-09-18T02:19:24;100537.97;;;16.62;100.00
71772;BME280;59606;52.138;5.424;2023-09-18T02:21:50;100534.38;;;16.63;100.00
71772;BME280;59606;52.138;5.424;2023-09-18T02:24:17;100534.38;;;16.63;100.00
71772;BME280;59606;52.138;5.424;2023-09-18T02:26:43;100533.41;;;16.64;100.00
71772;BME280;59606;52.138;5.424;2023-09-18T02:29:12;100532.59;;;16.64;100.00
71772;BME280;59606;52.138;5.424;2023-09-18T02:31:41;100526.63;;;16.62;100.00
71772;BME280;59606;52.138;5.424;2023-09-18T02:34:07;100518.00;;;16.60;100.00
71772;BME280;59606;52.138;5.424;2023-09-18T02:36:35;100504.03;;;16.59;100.00
71772;BME280;59606;52.138;5.424;2023-09-18T02:39:02;100494.47;;;16.58;100.00
71772;BME280;59606;52.138;5.424;2023-09-18T02:41:29;100484.09;;;16.57;100.00
71772;BME280;59606;52.138;5.424;2023-09-18T02:43:56;100492.00;;;16.57;100.00
71772;BME280;59606;52.138;5.424;2023-09-18T02:46:22;100478.97;;;16.55;100.00
71772;BME280;59606;52.138;5.424;2023-09-18T02:48:49;100474.66;;;16.54;100.00
71772;BME280;59606;52.138;5.424;2023-09-18T02:51:16;100465.97;;;16.54;100.00
71772;BME280;59606;52.138;5.424;2023-09-18T02:53:43;100465.09;;;16.53;100.00
71772;BME280;59606;52.138;5.424;2023-09-18T02:56:09;100457.34;;;16.52;100.00
71772;BME280;59606;52.138;5.424;2023-09-18T02:58:36;100458.44;;;16.49;100.00
71772;BME280;59606;52.138;5.424;2023-09-18T03:01:02;100447.94;;;16.49;100.00
71772;BME280;59606;52.138;5.424;2023-09-18T03:03:31;100439.91;;;16.50;100.00
71772;BME280;59606;52.138;5.424;2023-09-18T03:06:02;100429.41;;;16.50;100.00
71772;BME280;59606;52.138;5.424;2023-09-18T03:08:29;100418.88;;;16.50;100.00
71772;BME280;59606;52.138;5.424;2023-09-18T03:10:56;100409.19;;;16.51;100.00
71772;BME280;59606;52.138;5.424;2023-09-18T03:13:23;100404.75;;;16.52;100.00
71772;BME280;59606;52.138;5.424;2023-09-18T03:15:49;100393.25;;;16.53;100.00
71772;BME280;59606;52.138;5.424;2023-09-18T03:18:16;100398.53;;;16.53;100.00
71772;BME280;59606;52.138;5.424;2023-09-18T03:20:43;100398.41;;;16.54;100.00
71772;BME280;59606;52.138;5.424;2023-09-18T03:23:09;100396.47;;;16.56;100.00
71772;BME280;59606;52.138;5.424;2023-09-18T03:25:36;100398.97;;;16.58;100.00
71772;BME280;59606;52.138;5.424;2023-09-18T03:28:16;100392.75;;;16.59;100.00
71772;BME280;59606;52.138;5.424;2023-09-18T03:30:43;100382.09;;;16.60;100.00
71772;BME280;59606;52.138;5.424;2023-09-18T03:33:09;100378.34;;;16.63;100.00
71772;BME280;59606;52.138;5.424;2023-09-18T03:35:47;100388.59;;;16.66;100.00
71772;BME280;59606;52.138;5.424;2023-09-18T03:38:14;100381.69;;;16.65;100.00
71772;BME280;59606;52.138;5.424;2023-09-18T03:40:41;100390.28;;;16.67;100.00
71772;BME280;59606;52.138;5.424;2023-09-18T03:43:09;100385.84;;;16.67;100.00
71772;BME280;59606;52.138;5.424;2023-09-18T03:45:36;100400.66;;;16.68;100.00
71772;BME280;59606;52.138;5.424;2023-09-18T03:48:03;100394.97;;;16.73;100.00
71772;BME280;59606;52.138;5.424;2023-09-18T03:50:29;100400.00;;;16.76;100.00
71772;BME280;59606;52.138;5.424;2023-09-18T03:52:56;100407.63;;;16.79;100.00
71772;BME280;59606;52.138;5.424;2023-09-18T03:55:22;100407.09;;;16.85;100.00
71772;BME280;59606;52.138;5.424;2023-09-18T03:57:49;100391.88;;;16.89;100.00
71772;BME280;59606;52.138;5.424;2023-09-18T04:00:16;100387.31;;;16.91;100.00
71772;BME280;59606;52.138;5.424;2023-09-18T04:02:42;100388.97;;;16.92;100.00
71772;BME280;59606;52.138;5.424;2023-09-18T04:05:09;100377.63;;;16.91;100.00
71772;BME280;59606;52.138;5.424;2023-09-18T04:07:36;100368.75;;;16.92;100.00
71772;BME280;59606;52.138;5.424;2023-09-18T04:10:02;100371.38;;;16.92;100.00
71772;BME280;59606;52.138;5.424;2023-09-18T04:12:30;100366.94;;;16.93;100.00
71772;BME280;59606;52.138;5.424;2023-09-18T04:14:57;100375.28;;;16.98;100.00
71772;BME280;59606;52.138;5.424;2023-09-18T04:17:23;100368.22;;;16.99;100.00
71772;BME280;59606;52.138;5.424;2023-09-18T04:19:50;100360.75;;;17.04;100.00
71772;BME280;59606;52.138;5.424;2023-09-18T04:22:16;100351.59;;;17.08;100.00
71772;BME280;59606;52.138;5.424;2023-09-18T04:24:43;100343.44;;;17.11;100.00
71772;BME280;59606;52.138;5.424;2023-09-18T04:27:09;100335.66;;;17.09;100.00
71772;BME280;59606;52.138;5.424;2023-09-18T04:29:36;100326.09;;;17.08;100.00
71772;BME280;59606;52.138;5.424;2023-09-18T04:32:03;100332.06;;;17.10;100.00
71772;BME280;59606;52.138;5.424;2023-09-18T04:34:30;100331.09;;;17.11;100.00
71772;BME280;59606;52.138;5.424;2023-09-18T04:36:57;100323.03;;;17.13;100.00
71772;BME280;59606;52.138;5.424;2023-09-18T04:39:24;100318.59;;;17.13;100.00
71772;BME280;59606;52.138;5.424;2023-09-18T04:41:50;100305.44;;;17.13;100.00
71772;BME280;59606;52.138;5.424;2023-09-18T04:44:17;100297.72;;;17.12;100.00
71772;BME280;59606;52.138;5.424;2023-09-18T04:46:44;100305.59;;;17.12;100.00
71772;BME280;59606;52.138;5.424;2023-09-18T04:49:10;100303.13;;;17.10;100.00
71772;BME280;59606;52.138;5.424;2023-09-18T04:51:38;100300.63;;;17.09;100.00
71772;BME280;59606;52.138;5.424;2023-09-18T04:54:05;100298.97;;;17.08;100.00
71772;BME280;59606;52.138;5.424;2023-09-18T04:56:32;100293.69;;;17.08;100.00
71772;BME280;59606;52.138;5.424;2023-09-18T04:58:59;100315.44;;;17.10;100.00
71772;BME280;59606;52.138;5.424;2023-09-18T05:01:26;100367.53;;;17.16;100.00
71772;BME280;59606;52.138;5.424;2023-09-18T05:03:53;100358.66;;;17.27;100.00
71772;BME280;59606;52.138;5.424;2023-09-18T05:06:20;100341.47;;;17.32;100.00
71772;BME280;59606;52.138;5.424;2023-09-18T05:08:47;100362.09;;;17.37;100.00
71772;BME280;59606;52.138;5.424;2023-09-18T05:11:14;100379.72;;;17.46;100.00
71772;BME280;59606;52.138;5.424;2023-09-18T05:13:40;100344.53;;;17.47;100.00
71772;BME280;59606;52.138;5.424;2023-09-18T05:16:07;100338.81;;;17.52;100.00
71772;BME280;59606;52.138;5.424;2023-09-18T05:18:33;100355.28;;;17.54;100.00
71772;BME280;59606;52.138;5.424;2023-09-18T05:21:00;100347.41;;;17.54;100.00
71772;BME280;59606;52.138;5.424;2023-09-18T05:23:28;100351.56;;;17.56;100.00
71772;BME280;59606;52.138;5.424;2023-09-18T05:25:55;100332.16;;;17.57;100.00
71772;BME280;59606;52.138;5.424;2023-09-18T05:28:21;100328.00;;;17.55;100.00
71772;BME280;59606;52.138;5.424;2023-09-18T05:30:48;100334.94;;;17.56;100.00
71772;BME280;59606;52.138;5.424;2023-09-18T05:33:14;100333.94;;;17.57;100.00
71772;BME280;59606;52.138;5.424;2023-09-18T05:35:43;100345.34;;;17.57;100.00
71772;BME280;59606;52.138;5.424;2023-09-18T05:38:13;100339.22;;;17.57;100.00
71772;BME280;59606;52.138;5.424;2023-09-18T05:40:41;100350.88;;;17.54;100.00
71772;BME280;59606;52.138;5.424;2023-09-18T05:43:08;100349.19;;;17.53;100.00
71772;BME280;59606;52.138;5.424;2023-09-18T05:45:34;100345.75;;;17.53;100.00
71772;BME280;59606;52.138;5.424;2023-09-18T05:48:01;100342.44;;;17.51;100.00
71772;BME280;59606;52.138;5.424;2023-09-18T05:50:32;100344.22;;;17.50;100.00
71772;BME280;59606;52.138;5.424;2023-09-18T05:52:59;100356.56;;;17.50;100.00
71772;BME280;59606;52.138;5.424;2023-09-18T05:55:27;100351.28;;;17.50;100.00
71772;BME280;59606;52.138;5.424;2023-09-18T05:57:54;100352.97;;;17.51;100.00
71772;BME280;59606;52.138;5.424;2023-09-18T06:00:21;100347.81;;;17.49;100.00
71772;BME280;59606;52.138;5.424;2023-09-18T06:02:48;100339.94;;;17.49;100.00
71772;BME280;59606;52.138;5.424;2023-09-18T06:05:15;100341.72;;;17.49;100.00
71772;BME280;59606;52.138;5.424;2023-09-18T06:07:42;100346.03;;;17.50;100.00
71772;BME280;59606;52.138;5.424;2023-09-18T06:10:10;100346.19;;;17.48;100.00
71772;BME280;59606;52.138;5.424;2023-09-18T06:12:40;100341.88;;;17.47;100.00
71772;BME280;59606;52.138;5.424;2023-09-18T06:15:08;100342.00;;;17.46;100.00
71772;BME280;59606;52.138;5.424;2023-09-18T06:17:39;100348.94;;;17.47;100.00
71772;BME280;59606;52.138;5.424;2023-09-18T06:20:08;100354.19;;;17.47;100.00
71772;BME280;59606;52.138;5.424;2023-09-18T06:22:40;100354.91;;;17.49;100.00
71772;BME280;59606;52.138;5.424;2023-09-18T06:25:08;100348.38;;;17.53;100.00
71772;BME280;59606;52.138;5.424;2023-09-18T06:27:37;100351.56;;;17.56;100.00
71772;BME280;59606;52.138;5.424;2023-09-18T06:30:05;100351.44;;;17.58;100.00
71772;BME280;59606;52.138;5.424;2023-09-18T06:32:32;100360.00;;;17.60;100.00
71772;BME280;59606;52.138;5.424;2023-09-18T06:34:59;100354.63;;;17.61;100.00
71772;BME280;59606;52.138;5.424;2023-09-18T06:37:26;100354.34;;;17.64;100.00
71772;BME280;59606;52.138;5.424;2023-09-18T06:39:52;100356.81;;;17.66;100.00
71772;BME280;59606;52.138;5.424;2023-09-18T06:42:19;100352.91;;;17.70;100.00
71772;BME280;59606;52.138;5.424;2023-09-18T06:44:46;100350.97;;;17.72;100.00
71772;BME280;59606;52.138;5.424;2023-09-18T06:47:12;100351.53;;;17.76;100.00
71772;BME280;59606;52.138;5.424;2023-09-18T06:49:39;100351.53;;;17.76;100.00
71772;BME280;59606;52.138;5.424;2023-09-18T06:52:09;100357.53;;;17.78;100.00
71772;BME280;59606;52.138;5.424;2023-09-18T06:54:36;100355.72;;;17.78;100.00
71772;BME280;59606;52.138;5.424;2023-09-18T06:57:03;100353.63;;;17.82;100.00
71772;BME280;59606;52.138;5.424;2023-09-18T06:59:30;100354.00;;;17.87;100.00
71772;BME280;59606;52.138;5.424;2023-09-18T07:01:57;100349.44;;;17.89;100.00
71772;BME280;59606;52.138;5.424;2023-09-18T07:04:24;100357.44;;;17.97;100.00
71772;BME280;59606;52.138;5.424;2023-09-18T07:06:51;100359.81;;;18.00;100.00
71772;BME280;59606;52.138;5.424;2023-09-18T07:09:19;100357.69;;;18.04;100.00
71772;BME280;59606;52.138;5.424;2023-09-18T07:11:49;100367.56;;;18.11;100.00
71772;BME280;59606;52.138;5.424;2023-09-18T07:14:16;100361.84;;;18.16;100.00
71772;BME280;59606;52.138;5.424;2023-09-18T07:16:43;100367.50;;;18.21;100.00
71772;BME280;59606;52.138;5.424;2023-09-18T07:19:09;100366.38;;;18.24;100.00
71772;BME280;59606;52.138;5.424;2023-09-18T07:24:10;100373.03;;;18.28;100.00
71772;BME280;59606;52.138;5.424;2023-09-18T07:26:36;100374.69;;;18.29;100.00
71772;BME280;59606;52.138;5.424;2023-09-18T07:29:03;100355.13;;;18.31;100.00
71772;BME280;59606;52.138;5.424;2023-09-18T07:31:30;100357.59;;;18.33;100.00
71772;BME280;59606;52.138;5.424;2023-09-18T07:33:56;100360.78;;;18.36;100.00
71772;BME280;59606;52.138;5.424;2023-09-18T07:36:23;100359.78;;;18.37;100.00
71772;BME280;59606;52.138;5.424;2023-09-18T07:38:50;100357.00;;;18.39;100.00
71772;BME280;59606;52.138;5.424;2023-09-18T07:41:17;100358.53;;;18.42;100.00
71772;BME280;59606;52.138;5.424;2023-09-18T07:43:45;100367.13;;;18.44;100.00
71772;BME280;59606;52.138;5.424;2023-09-18T07:46:12;100373.09;;;18.46;100.00
71772;BME280;59606;52.138;5.424;2023-09-18T07:48:38;100364.88;;;18.49;100.00
71772;BME280;59606;52.138;5.424;2023-09-18T07:51:05;100359.44;;;18.50;100.00
71772;BME280;59606;52.138;5.424;2023-09-18T07:53:32;100367.06;;;18.53;100.00
71772;BME280;59606;52.138;5.424;2023-09-18T07:55:58;100360.50;;;18.57;100.00
71772;BME280;59606;52.138;5.424;2023-09-18T07:58:26;100355.78;;;18.61;100.00
71772;BME280;59606;52.138;5.424;2023-09-18T08:00:55;100365.22;;;18.64;100.00
71772;BME280;59606;52.138;5.424;2023-09-18T08:03:21;100365.75;;;18.67;100.00
71772;BME280;59606;52.138;5.424;2023-09-18T08:05:52;100373.25;;;18.72;100.00
71772;BME280;59606;52.138;5.424;2023-09-18T08:08:20;100381.00;;;18.73;100.00
71772;BME280;59606;52.138;5.424;2023-09-18T08:10:51;100376.56;;;18.74;100.00
71772;BME280;59606;52.138;5.424;2023-09-18T08:13:19;100379.91;;;18.76;100.00
71772;BME280;59606;52.138;5.424;2023-09-18T08:15:49;100378.91;;;18.77;100.00
71772;BME280;59606;52.138;5.424;2023-09-18T08:18:17;100375.31;;;18.78;100.00
71772;BME280;59606;52.138;5.424;2023-09-18T08:20:44;100377.78;;;18.79;100.00
71772;BME280;59606;52.138;5.424;2023-09-18T08:23:11;100382.91;;;18.81;100.00
71772;BME280;59606;52.138;5.424;2023-09-18T08:25:39;100383.75;;;18.81;100.00
71772;BME280;59606;52.138;5.424;2023-09-18T08:28:07;100392.22;;;18.85;100.00
71772;BME280;59606;52.138;5.424;2023-09-18T08:30:35;100407.06;;;18.86;100.00
71772;BME280;59606;52.138;5.424;2023-09-18T08:33:03;100406.22;;;18.86;100.00
71772;BME280;59606;52.138;5.424;2023-09-18T08:35:31;100393.28;;;18.92;100.00
71772;BME280;59606;52.138;5.424;2023-09-18T08:37:58;100388.53;;;18.96;100.00
71772;BME280;59606;52.138;5.424;2023-09-18T08:40:25;100388.53;;;18.96;100.00
71772;BME280;59606;52.138;5.424;2023-09-18T08:42:55;100393.81;;;18.96;100.00
71772;BME280;59606;52.138;5.424;2023-09-18T08:45:46;100405.19;;;18.96;100.00
71772;BME280;59606;52.138;5.424;2023-09-18T08:48:18;100399.91;;;18.96;100.00
71772;BME280;59606;52.138;5.424;2023-09-18T08:50:45;100409.59;;;19.05;100.00
71772;BME280;59606;52.138;5.424;2023-09-18T08:53:14;100405.66;;;19.10;100.00
71772;BME280;59606;52.138;5.424;2023-09-18T08:55:41;100407.31;;;19.11;100.00
71772;BME280;59606;52.138;5.424;2023-09-18T08:58:07;100423.38;;;19.17;100.00
71772;BME280;59606;52.138;5.424;2023-09-18T09:00:36;100416.16;;;19.19;100.00
71772;BME280;59606;52.138;5.424;2023-09-18T09:03:03;100413.22;;;19.22;100.00
71772;BME280;59606;52.138;5.424;2023-09-18T09:05:31;100431.53;;;19.24;100.00
71772;BME280;59606;52.138;5.424;2023-09-18T09:07:58;100437.34;;;19.27;100.00
71772;BME280;59606;52.138;5.424;2023-09-18T09:10:26;100435.94;;;19.33;100.00
71772;BME280;59606;52.138;5.424;2023-09-18T09:15:23;100440.97;;;19.44;100.00
71772;BME280;59606;52.138;5.424;2023-09-18T09:17:52;100433.13;;;19.52;100.00
71772;BME280;59606;52.138;5.424;2023-09-18T09:20:27;100436.97;;;19.58;100.00
71772;BME280;59606;52.138;5.424;2023-09-18T09:23:00;100421.66;;;19.62;100.00
71772;BME280;59606;52.138;5.424;2023-09-18T09:25:28;100426.72;;;19.73;100.00
71772;BME280;59606;52.138;5.424;2023-09-18T09:27:59;100438.72;;;19.85;100.00
71772;BME280;59606;52.138;5.424;2023-09-18T09:30:28;100428.53;;;19.98;100.00
71772;BME280;59606;52.138;5.424;2023-09-18T09:32:56;100427.31;;;20.11;100.00
71772;BME280;59606;52.138;5.424;2023-09-18T09:37:56;100434.31;;;20.20;100.00
71772;BME280;59606;52.138;5.424;2023-09-18T09:40:24;100440.13;;;20.23;100.00
71772;BME280;59606;52.138;5.424;2023-09-18T09:42:54;100446.91;;;20.26;100.00
71772;BME280;59606;52.138;5.424;2023-09-18T09:45:31;100455.16;;;20.23;100.00
71772;BME280;59606;52.138;5.424;2023-09-18T09:48:04;100452.13;;;20.18;100.00
71772;BME280;59606;52.138;5.424;2023-09-18T09:50:34;100454.59;;;20.11;100.00
71772;BME280;59606;52.138;5.424;2023-09-18T09:53:13;100468.06;;;20.00;100.00
71772;BME280;59606;52.138;5.424;2023-09-18T09:55:40;100464.22;;;19.94;100.00
71772;BME280;59606;52.138;5.424;2023-09-18T09:58:09;100455.94;;;19.89;100.00
71772;BME280;59606;52.138;5.424;2023-09-18T10:00:46;100460.22;;;19.90;100.00
71772;BME280;59606;52.138;5.424;2023-09-18T10:03:16;100461.75;;;19.93;100.00
71772;BME280;59606;52.138;5.424;2023-09-18T10:05:46;100467.84;;;19.93;100.00
71772;BME280;59606;52.138;5.424;2023-09-18T10:08:16;100465.91;;;19.95;100.00
71772;BME280;59606;52.138;5.424;2023-09-18T10:10:52;100474.13;;;19.92;100.00
71772;BME280;59606;52.138;5.424;2023-09-18T10:13:47;100484.03;;;19.90;100.00
71772;BME280;59606;52.138;5.424;2023-09-18T10:16:16;100472.00;;;19.96;100.00
71772;BME280;59606;52.138;5.424;2023-09-18T10:24:25;100463.84;;;20.41;100.00
71772;BME280;59606;52.138;5.424;2023-09-18T10:26:57;100468.81;;;20.62;100.00
71772;BME280;59606;52.138;5.424;2023-09-18T10:29:25;100464.06;;;20.82;100.00
71772;BME280;59606;52.138;5.424;2023-09-18T10:31:53;100461.34;;;21.00;100.00
71772;BME280;59606;52.138;5.424;2023-09-18T10:34:21;100471.47;;;21.13;100.00
71772;BME280;59606;52.138;5.424;2023-09-18T10:36:50;100480.38;;;21.04;100.00
71772;BME280;59606;52.138;5.424;2023-09-18T10:39:17;100479.88;;;21.00;100.00
71772;BME280;59606;52.138;5.424;2023-09-18T10:41:54;100489.47;;;21.01;100.00
71772;BME280;59606;52.138;5.424;2023-09-18T10:44:22;100491.63;;;20.98;100.00
71772;BME280;59606;52.138;5.424;2023-09-18T10:46:50;100503.16;;;20.88;100.00
71772;BME280;59606;52.138;5.424;2023-09-18T10:49:21;100498.38;;;20.92;100.00
71772;BME280;59606;52.138;5.424;2023-09-18T10:51:48;100491.81;;;21.04;100.00
71772;BME280;59606;52.138;5.424;2023-09-18T10:54:25;100489.47;;;21.01;100.00
71772;BME280;59606;52.138;5.424;2023-09-18T10:56:52;100485.97;;;20.92;100.00
71772;BME280;59606;52.138;5.424;2023-09-18T10:59:20;100489.41;;;20.85;100.00
71772;BME280;59606;52.138;5.424;2023-09-18T11:01:49;100496.34;;;20.78;100.00
71772;BME280;59606;52.138;5.424;2023-09-18T11:04:20;100486.38;;;20.71;100.00
71772;BME280;59606;52.138;5.424;2023-09-18T11:09:29;100491.03;;;20.78;100.00
71772;BME280;59606;52.138;5.424;2023-09-18T11:14:56;100480.38;;;21.12;100.00
71772;BME280;59606;52.138;5.424;2023-09-18T11:17:37;100472.16;;;21.23;100.00
71772;BME280;59606;52.138;5.424;2023-09-18T11:20:18;100470.03;;;21.35;100.00
71772;BME280;59606;52.138;5.424;2023-09-18T11:22:55;100472.38;;;21.38;100.00
71772;BME280;59606;52.138;5.424;2023-09-18T11:25:34;100468.84;;;21.29;99.00
71772;BME280;59606;52.138;5.424;2023-09-18T11:28:02;100469.19;;;21.26;99.79
71772;BME280;59606;52.138;5.424;2023-09-18T11:30:29;100466.19;;;21.21;96.71
71772;BME280;59606;52.138;5.424;2023-09-18T11:32:56;100475.44;;;21.17;96.76
71772;BME280;59606;52.138;5.424;2023-09-18T11:35:24;100472.31;;;21.13;95.72
71772;BME280;59606;52.138;5.424;2023-09-18T11:38:06;100471.16;;;21.16;97.90
71772;BME280;59606;52.138;5.424;2023-09-18T11:40:34;100467.00;;;21.22;95.09
71772;BME280;59606;52.138;5.424;2023-09-18T11:43:28;100453.44;;;21.25;96.16
71772;BME280;59606;52.138;5.424;2023-09-18T11:45:59;100458.06;;;21.23;96.04
71772;BME280;59606;52.138;5.424;2023-09-18T11:48:28;100466.69;;;21.16;95.81
71772;BME280;59606;52.138;5.424;2023-09-18T11:50:57;100463.03;;;21.17;95.66
71772;BME280;59606;52.138;5.424;2023-09-18T11:53:27;100471.16;;;21.16;95.52
71772;BME280;59606;52.138;5.424;2023-09-18T11:55:54;100464.16;;;21.07;95.51
71772;BME280;59606;52.138;5.424;2023-09-18T11:58:22;100460.00;;;21.04;95.01
71772;BME280;59606;52.138;5.424;2023-09-18T12:00:50;100464.50;;;21.04;96.12
71772;BME280;59606;52.138;5.424;2023-09-18T12:03:23;100467.47;;;21.09;95.28
71772;BME280;59606;52.138;5.424;2023-09-18T12:05:55;100456.22;;;21.15;96.45
71772;BME280;59606;52.138;5.424;2023-09-18T12:08:23;100470.47;;;21.14;95.82
71772;BME280;59606;52.138;5.424;2023-09-18T12:10:54;100469.34;;;21.16;96.52
71772;BME280;59606;52.138;5.424;2023-09-18T12:13:24;100469.19;;;21.26;96.49
71772;BME280;59606;52.138;5.424;2023-09-18T12:16:03;100468.41;;;21.42;96.68
71772;BME280;59606;52.138;5.424;2023-09-18T12:18:32;100460.47;;;21.58;95.90
71772;BME280;59606;52.138;5.424;2023-09-18T12:21:02;100460.13;;;21.61;93.07
71772;BME280;59606;52.138;5.424;2023-09-18T12:23:38;100467.59;;;21.58;93.10
71772;BME280;59606;52.138;5.424;2023-09-18T12:26:06;100457.50;;;21.53;92.96
71772;BME280;59606;52.138;5.424;2023-09-18T12:28:36;100456.81;;;21.59;92.71
71772;BME280;59606;52.138;5.424;2023-09-18T12:31:03;100460.47;;;21.75;91.47
71772;BME280;59606;52.138;5.424;2023-09-18T12:33:36;100468.78;;;21.80;90.13
71772;BME280;59606;52.138;5.424;2023-09-18T12:36:04;100457.31;;;21.87;90.13
71772;BME280;59606;52.138;5.424;2023-09-18T12:38:31;100465.25;;;21.96;90.13
71772;BME280;59606;52.138;5.424;2023-09-18T12:41:00;100464.59;;;22.02;89.30
71772;BME280;59606;52.138;5.424;2023-09-18T12:43:39;100463.59;;;22.11;89.56
71772;BME280;59606;52.138;5.424;2023-09-18T12:46:07;100455.63;;;22.19;88.73
71772;BME280;59606;52.138;5.424;2023-09-18T12:48:38;100456.81;;;22.17;88.50
71772;BME280;59606;52.138;5.424;2023-09-18T12:51:08;100453.16;;;22.18;87.63
71772;BME280;59606;52.138;5.424;2023-09-18T12:53:35;100437.56;;;22.15;84.60
71772;BME280;59606;52.138;5.424;2023-09-18T12:56:07;100435.38;;;22.26;85.01
71772;BME280;59606;52.138;5.424;2023-09-18T12:58:34;100433.72;;;22.33;82.01
71772;BME280;59606;52.138;5.424;2023-09-18T13:01:18;100438.38;;;22.31;81.86
71772;BME280;59606;52.138;5.424;2023-09-18T13:03:46;100424.09;;;22.32;82.53
71772;BME280;59606;52.138;5.424;2023-09-18T13:06:18;100428.75;;;22.30;81.96
71772;BME280;59606;52.138;5.424;2023-09-18T13:08:46;100422.78;;;22.28;83.19